createdAt,value
2019-06-26T00:01:14.013Z,37.70
2019-06-26T00:03:42.625Z,37.60
2019-06-26T00:06:11.240Z,37.42
2019-06-26T00:08:39.911Z,37.77
2019-06-26T00:11:08.583Z,38.23
2019-06-26T00:13:37.225Z,38.43
2019-06-26T00:16:05.889Z,39.47
2019-06-26T00:18:34.611Z,38.98
2019-06-26T00:21:03.228Z,38.10
2019-06-26T00:23:31.846Z,39.63
2019-06-26T00:26:00.567Z,37.63
2019-06-26T00:28:29.068Z,39.50
2019-06-26T00:30:57.658Z,40.43
2019-06-26T00:33:26.161Z,40.73
2019-06-26T00:35:54.912Z,41.90
2019-06-26T00:38:23.482Z,41.83
2019-06-26T00:40:52.159Z,43.10
2019-06-26T00:43:21.406Z,42.23
2019-06-26T00:45:50.164Z,42.95
2019-06-26T00:48:18.779Z,44.33
2019-06-26T00:50:47.410Z,43.67
2019-06-26T00:53:15.968Z,43.07
2019-06-26T00:55:44.499Z,43.53
2019-06-26T00:58:13.081Z,43.68
2019-06-26T01:00:44.747Z,43.70
2019-06-26T01:03:13.347Z,45.10
2019-06-26T01:05:41.956Z,40.67
2019-06-26T01:08:10.518Z,42.37
2019-06-26T01:10:39.205Z,43.17
2019-06-26T01:13:08.083Z,43.37
2019-06-26T01:15:36.683Z,43.33
2019-06-26T01:18:05.395Z,42.13
2019-06-26T01:20:34.106Z,42.87
2019-06-26T01:23:02.785Z,40.75
2019-06-26T01:25:31.438Z,40.70
2019-06-26T01:27:59.999Z,39.97
2019-06-26T01:30:28.708Z,38.63
2019-06-26T01:32:57.331Z,39.13
2019-06-26T01:35:26.106Z,39.70
2019-06-26T01:37:54.937Z,38.15
2019-06-26T01:40:23.666Z,38.63
2019-06-26T01:42:52.301Z,38.57
2019-06-26T01:45:21.099Z,36.27
2019-06-26T01:47:49.779Z,37.07
2019-06-26T01:50:19.341Z,38.13
2019-06-26T01:52:47.968Z,38.73
2019-06-26T01:55:16.958Z,38.23
2019-06-26T01:57:45.620Z,37.80
2019-06-26T02:00:14.727Z,39.77
2019-06-26T02:02:43.399Z,38.47
2019-06-26T02:05:12.323Z,37.63
2019-06-26T02:07:41.097Z,37.20
2019-06-26T02:10:10.211Z,37.17
2019-06-26T02:12:38.853Z,38.60
2019-06-26T02:15:08.070Z,38.90
2019-06-26T02:17:38.765Z,37.75
2019-06-26T02:20:07.790Z,37.55
2019-06-26T02:22:36.429Z,39.27
2019-06-26T02:25:06.540Z,38.33
2019-06-26T02:27:39.744Z,38.80
2019-06-26T02:30:08.690Z,38.20
2019-06-26T02:32:37.568Z,37.97
2019-06-26T02:35:25.551Z,39.60
2019-06-26T02:37:54.130Z,38.80
2019-06-26T02:40:22.933Z,39.33
2019-06-26T02:42:51.619Z,37.07
2019-06-26T02:45:20.514Z,35.67
2019-06-26T02:47:49.064Z,32.97
2019-06-26T02:50:17.845Z,33.92
2019-06-26T02:52:46.553Z,32.28
2019-06-26T02:55:19.904Z,32.35
2019-06-26T02:57:45.981Z,31.00
2019-06-26T03:00:16.115Z,31.23
2019-06-26T03:02:44.686Z,29.33
2019-06-26T03:05:13.411Z,30.87
2019-06-26T03:07:42.030Z,30.93
2019-06-26T03:10:11.817Z,28.53
2019-06-26T03:12:40.732Z,30.25
2019-06-26T03:15:10.289Z,28.63
2019-06-26T03:17:54.012Z,28.47
2019-06-26T03:20:09.952Z,27.27
2019-06-26T03:22:38.772Z,29.20
2019-06-26T03:25:07.563Z,29.17
2019-06-26T03:27:36.224Z,29.33
2019-06-26T03:30:06.999Z,29.00
2019-06-26T03:32:35.659Z,29.30
2019-06-26T03:35:05.897Z,30.80
2019-06-26T03:37:34.619Z,29.83
2019-06-26T03:40:04.261Z,29.77
2019-06-26T03:42:32.903Z,32.07
2019-06-26T03:45:01.582Z,33.30
2019-06-26T03:47:30.385Z,33.57
2019-06-26T03:49:58.963Z,34.27
2019-06-26T03:52:27.538Z,33.77
2019-06-26T03:54:56.029Z,34.97
2019-06-26T03:57:24.743Z,35.52
2019-06-26T03:59:53.392Z,32.43
2019-06-26T04:02:22.033Z,32.97
2019-06-26T04:04:50.593Z,33.33
2019-06-26T04:07:19.228Z,34.33
2019-06-26T04:09:47.692Z,35.10
2019-06-26T04:12:16.309Z,34.07
2019-06-26T04:14:44.798Z,35.30
2019-06-26T04:17:13.412Z,35.27
2019-06-26T04:19:41.988Z,34.80
2019-06-26T04:22:10.664Z,36.53
2019-06-26T04:24:39.250Z,36.53
2019-06-26T04:27:07.745Z,36.42
2019-06-26T04:29:36.390Z,37.20
2019-06-26T04:32:04.948Z,37.60
2019-06-26T04:34:33.686Z,38.33
2019-06-26T04:37:02.241Z,36.90
2019-06-26T04:39:30.806Z,38.50
2019-06-26T04:41:59.436Z,39.50
2019-06-26T04:44:28.019Z,38.07
2019-06-26T04:46:56.668Z,39.93
2019-06-26T04:49:25.285Z,39.80
2019-06-26T04:51:53.783Z,38.40
2019-06-26T04:54:22.394Z,39.07
2019-06-26T04:56:51.068Z,38.63
2019-06-26T04:59:19.589Z,39.20
2019-06-26T05:01:48.217Z,36.70
2019-06-26T05:04:16.747Z,37.00
2019-06-26T05:06:45.322Z,37.33
2019-06-26T05:09:13.882Z,36.40
2019-06-26T05:11:42.522Z,38.42
2019-06-26T05:14:11.035Z,38.50
2019-06-26T05:16:39.718Z,39.58
2019-06-26T05:19:11.601Z,41.63
2019-06-26T05:21:40.425Z,40.40
2019-06-26T05:24:21.155Z,41.80
2019-06-26T05:26:50.004Z,41.33
2019-06-26T05:29:18.692Z,40.87
2019-06-26T05:31:47.475Z,41.00
2019-06-26T05:34:16.171Z,39.17
2019-06-26T05:36:45.092Z,37.97
2019-06-26T05:39:13.791Z,39.17
2019-06-26T05:41:42.272Z,39.13
2019-06-26T05:44:10.918Z,38.30
2019-06-26T05:46:39.452Z,38.03
2019-06-26T05:49:08.174Z,35.80
2019-06-26T05:51:36.872Z,33.57
2019-06-26T05:54:05.659Z,34.57
2019-06-26T05:56:34.295Z,35.03
2019-06-26T05:59:03.012Z,32.37
2019-06-26T06:01:32.039Z,31.50
2019-06-26T06:04:00.639Z,29.00
2019-06-26T06:06:41.079Z,28.10
2019-06-26T06:08:59.616Z,28.03
2019-06-26T06:11:28.206Z,27.55
2019-06-26T06:13:56.935Z,27.50
2019-06-26T06:16:25.697Z,27.47
2019-06-26T06:18:54.511Z,26.70
2019-06-26T06:21:23.112Z,28.00
2019-06-26T06:23:51.816Z,31.20
2019-06-26T06:26:20.419Z,30.17
2019-06-26T06:28:49.069Z,28.40
2019-06-26T06:31:17.636Z,27.47
2019-06-26T06:33:46.399Z,26.13
2019-06-26T06:36:14.888Z,26.53
2019-06-26T06:38:43.459Z,25.43
2019-06-26T06:41:12.023Z,25.35
2019-06-26T06:43:40.695Z,24.43
2019-06-26T06:46:09.377Z,24.70
2019-06-26T06:48:38.113Z,25.73
2019-06-26T06:51:06.809Z,25.17
2019-06-26T06:53:35.436Z,24.93
2019-06-26T06:56:03.987Z,26.25
2019-06-26T06:58:32.595Z,24.72
2019-06-26T07:01:01.228Z,25.03
2019-06-26T07:03:29.877Z,24.57
2019-06-26T07:05:58.916Z,24.73
2019-06-26T07:08:30.733Z,27.07
2019-06-26T07:11:02.425Z,26.68
2019-06-26T07:13:31.278Z,26.75
2019-06-26T07:16:00.064Z,24.67
2019-06-26T07:18:28.879Z,25.75
2019-06-26T07:20:57.692Z,26.43
2019-06-26T07:23:26.409Z,27.13
2019-06-26T07:25:55.117Z,27.85
2019-06-26T07:28:23.733Z,24.63
2019-06-26T07:30:52.638Z,25.62
2019-06-26T07:33:21.204Z,25.07
2019-06-26T07:35:49.912Z,26.10
2019-06-26T07:38:18.501Z,26.17
2019-06-26T07:40:47.039Z,23.57
2019-06-26T07:43:33.727Z,24.27
2019-06-26T07:49:35.766Z,23.75
2019-06-26T07:52:04.555Z,22.58
2019-06-26T07:54:33.067Z,23.38
2019-06-26T07:59:36.382Z,23.05
2019-06-26T08:02:04.987Z,22.90
2019-06-26T08:04:33.695Z,22.77
2019-06-26T08:07:02.373Z,21.73
2019-06-26T08:09:31.034Z,23.45
2019-06-26T08:11:59.632Z,23.07
2019-06-26T08:14:28.233Z,23.15
2019-06-26T08:16:56.816Z,22.85
2019-06-26T08:19:25.438Z,23.03
2019-06-26T08:21:54.087Z,23.32
2019-06-26T08:24:22.628Z,22.10
2019-06-26T08:26:51.258Z,21.87
2019-06-26T08:29:19.797Z,21.68
2019-06-26T08:31:56.153Z,22.40
2019-06-26T08:34:24.901Z,23.62
2019-06-26T08:36:53.565Z,23.20
2019-06-26T08:39:22.099Z,20.87
2019-06-26T08:41:54.115Z,21.48
2019-06-26T08:44:23.392Z,20.63
2019-06-26T08:46:52.045Z,20.68
2019-06-26T08:49:25.603Z,19.82
2019-06-26T08:51:51.022Z,21.10
2019-06-26T08:54:19.614Z,21.15
2019-06-26T08:56:48.266Z,21.35
2019-06-26T08:59:16.912Z,19.93
2019-06-26T09:01:45.627Z,20.77
2019-06-26T09:04:39.540Z,18.90
2019-06-26T09:07:25.226Z,19.67
2019-06-26T09:09:53.859Z,19.27
2019-06-26T09:12:22.466Z,20.15
2019-06-26T09:14:51.160Z,19.42
2019-06-26T09:17:20.070Z,18.30
2019-06-26T09:19:48.646Z,19.90
2019-06-26T09:22:17.249Z,17.62
2019-06-26T09:24:45.912Z,18.42
2019-06-26T09:27:15.150Z,16.35
2019-06-26T09:29:54.057Z,18.23
2019-06-26T09:32:22.860Z,17.95
2019-06-26T09:34:51.569Z,17.12
2019-06-26T09:37:20.162Z,17.77
2019-06-26T09:39:48.804Z,18.25
2019-06-26T09:42:19.691Z,18.73
2019-06-26T09:44:48.139Z,20.68
2019-06-26T09:47:16.852Z,17.98
2019-06-26T09:49:45.518Z,20.08
2019-06-26T09:52:14.224Z,19.50
2019-06-26T09:54:42.893Z,19.15
2019-06-26T09:57:11.682Z,20.48
2019-06-26T09:59:40.267Z,18.77
2019-06-26T10:02:08.952Z,17.80
2019-06-26T10:04:37.673Z,18.00
2019-06-26T10:07:06.385Z,16.85
2019-06-26T10:09:34.966Z,15.35
2019-06-26T10:12:03.672Z,15.28
2019-06-26T10:14:46.547Z,17.15
2019-06-26T10:17:05.096Z,16.70
2019-06-26T10:19:33.798Z,15.23
2019-06-26T10:22:02.361Z,16.30
2019-06-26T10:24:30.935Z,16.23
2019-06-26T10:26:59.716Z,15.68
2019-06-26T10:29:28.441Z,16.93
2019-06-26T10:31:57.026Z,16.20
2019-06-26T10:34:25.739Z,16.05
2019-06-26T10:36:54.373Z,16.07
2019-06-26T10:39:23.054Z,15.65
2019-06-26T10:41:55.019Z,13.85
2019-06-26T10:44:23.346Z,15.40
2019-06-26T10:46:52.083Z,15.43
2019-06-26T10:49:27.096Z,15.55
2019-06-26T10:51:50.963Z,14.13
2019-06-26T10:54:19.706Z,14.28
2019-06-26T10:56:48.258Z,14.47
2019-06-26T10:59:16.958Z,13.72
2019-06-26T11:01:45.613Z,13.50
2019-06-26T11:04:17.327Z,17.73
2019-06-26T11:06:46.117Z,15.68
2019-06-26T11:09:35.858Z,14.23
2019-06-26T11:12:04.586Z,15.53
2019-06-26T11:14:33.181Z,15.30
2019-06-26T11:17:01.781Z,13.48
2019-06-26T11:19:43.300Z,14.73
2019-06-26T11:22:00.800Z,13.48
2019-06-26T11:24:29.555Z,11.00
2019-06-26T11:26:58.147Z,13.20
2019-06-26T11:29:26.711Z,11.43
2019-06-26T11:31:57.910Z,10.93
2019-06-26T11:34:26.483Z,11.28
2019-06-26T11:37:03.775Z,11.68
2019-06-26T11:39:25.522Z,13.50
2019-06-26T11:41:54.286Z,10.25
2019-06-26T11:44:22.987Z,10.82
2019-06-26T11:46:51.648Z,12.85
2019-06-26T11:49:20.189Z,10.93
2019-06-26T11:51:48.918Z,12.35
2019-06-26T11:54:17.578Z,13.10
2019-06-26T11:56:46.235Z,10.45
2019-06-26T11:59:14.877Z,10.15
2019-06-26T12:01:43.505Z,10.72
2019-06-26T12:04:12.280Z,10.75
2019-06-26T12:06:40.999Z,12.78
2019-06-26T12:09:09.787Z,11.80
2019-06-26T12:11:38.501Z,11.70
2019-06-26T12:14:07.193Z,11.48
2019-06-26T12:16:35.885Z,11.80
2019-06-26T12:19:04.577Z,11.48
2019-06-26T12:21:33.407Z,12.88
2019-06-26T12:24:01.941Z,13.95
2019-06-26T12:26:30.610Z,14.03
2019-06-26T12:28:59.248Z,12.40
2019-06-26T12:31:27.962Z,11.48
2019-06-26T12:33:56.523Z,11.18
2019-06-26T12:36:25.491Z,10.80
2019-06-26T12:38:54.217Z,10.90
2019-06-26T12:41:22.874Z,11.18
2019-06-26T12:43:51.610Z,10.63
2019-06-26T12:46:20.590Z,10.48
2019-06-26T12:48:49.324Z,10.00
2019-06-26T12:51:17.935Z,10.28
2019-06-26T12:53:46.444Z,10.58
2019-06-26T12:56:15.271Z,10.80
2019-06-26T12:58:43.917Z,10.30
2019-06-26T13:01:12.465Z,11.60
2019-06-26T13:03:41.128Z,11.43
2019-06-26T13:06:09.882Z,11.85
2019-06-26T13:08:38.484Z,10.82
2019-06-26T13:11:07.186Z,11.05
2019-06-26T13:13:35.757Z,12.53
2019-06-26T13:16:04.519Z,12.55
2019-06-26T13:18:33.135Z,14.07
2019-06-26T13:21:05.077Z,14.05
2019-06-26T13:23:32.208Z,16.02
2019-06-26T13:26:00.968Z,15.23
2019-06-26T13:28:29.695Z,12.68
2019-06-26T13:30:58.431Z,13.68
2019-06-26T13:33:27.069Z,14.33
2019-06-26T13:35:55.719Z,14.70
2019-06-26T13:38:27.083Z,15.15
2019-06-26T13:40:55.001Z,15.38
2019-06-26T13:43:23.650Z,15.98
2019-06-26T13:45:52.369Z,18.07
2019-06-26T13:48:21.021Z,17.00
2019-06-26T13:50:49.809Z,17.42
2019-06-26T13:53:18.392Z,15.55
2019-06-26T13:55:46.963Z,15.35
2019-06-26T13:58:15.676Z,13.28
2019-06-26T14:00:44.247Z,13.05
2019-06-26T14:03:12.939Z,12.70
2019-06-26T14:05:41.718Z,11.85
2019-06-26T14:08:10.385Z,10.23
2019-06-26T14:10:39.052Z,9.63
2019-06-26T14:13:07.785Z,10.65
2019-06-26T14:15:36.497Z,10.70
2019-06-26T14:18:05.183Z,10.35
2019-06-26T14:20:34.103Z,8.53
2019-06-26T14:23:02.781Z,9.65
2019-06-26T14:25:31.439Z,8.48
2019-06-26T14:28:00.037Z,7.92
2019-06-26T14:30:28.693Z,8.40
2019-06-26T14:32:57.424Z,7.78
2019-06-26T14:35:26.105Z,9.13
2019-06-26T14:37:54.900Z,8.28
2019-06-26T14:40:23.648Z,8.63
2019-06-26T14:42:52.318Z,7.90
2019-06-26T14:45:21.101Z,7.55
2019-06-26T14:47:52.972Z,7.75
2019-06-26T14:50:21.785Z,9.00
2019-06-26T14:52:58.645Z,10.00
2019-06-26T14:55:27.234Z,9.93
2019-06-26T14:57:55.936Z,10.75
2019-06-26T15:00:24.787Z,11.43
2019-06-26T15:02:53.716Z,10.48
2019-06-26T15:05:22.389Z,10.30
2019-06-26T15:07:50.928Z,12.58
2019-06-26T15:10:20.100Z,12.15
2019-06-26T15:12:48.731Z,11.28
2019-06-26T15:15:17.781Z,11.57
2019-06-26T15:17:46.495Z,12.23
2019-06-26T15:20:16.496Z,12.40
2019-06-26T15:22:45.252Z,13.10
2019-06-26T15:25:15.746Z,12.25
2019-06-26T15:27:47.394Z,12.15
2019-06-26T15:30:17.739Z,12.15
2019-06-26T15:32:46.324Z,11.70
2019-06-26T15:35:15.745Z,12.40
2019-06-26T15:37:44.911Z,13.13
2019-06-26T15:40:19.892Z,13.58
2019-06-26T15:42:49.141Z,13.70
2019-06-26T15:45:20.754Z,13.88
2019-06-26T15:47:49.697Z,13.58
2019-06-26T15:50:18.455Z,17.37
2019-06-26T15:52:47.129Z,14.83
2019-06-26T15:55:15.865Z,13.95
2019-06-26T15:57:44.479Z,13.10
2019-06-26T16:00:13.574Z,12.45
2019-06-26T16:02:42.294Z,12.35
2019-06-26T16:05:11.746Z,12.78
2019-06-26T16:07:40.560Z,13.10
2019-06-26T16:10:20.185Z,12.47
2019-06-26T16:12:50.274Z,12.18
2019-06-26T16:15:21.517Z,10.78
2019-06-26T16:17:55.029Z,10.40
2019-06-26T16:20:23.889Z,9.90
2019-06-26T16:22:52.602Z,8.95
2019-06-26T16:25:21.738Z,8.93
2019-06-26T16:28:04.328Z,7.70
2019-06-26T16:30:21.355Z,6.95
2019-06-26T16:32:49.995Z,6.60
2019-06-26T16:35:20.173Z,6.55
2019-06-26T16:37:49.036Z,6.87
2019-06-26T16:40:18.037Z,7.50
2019-06-26T16:42:46.863Z,6.08
2019-06-26T16:45:16.336Z,7.45
2019-06-26T16:47:46.697Z,6.00
2019-06-26T16:50:15.831Z,5.75
2019-06-26T16:52:49.746Z,5.92
2019-06-26T16:55:15.480Z,6.08
2019-06-26T16:57:44.369Z,6.05
2019-06-26T17:00:13.399Z,5.62
2019-06-26T17:02:42.270Z,5.05
2019-06-26T17:05:11.048Z,5.25
2019-06-26T17:07:39.667Z,5.33
2019-06-26T17:10:09.383Z,5.80
2019-06-26T17:12:38.197Z,5.42
2019-06-26T17:15:09.833Z,5.17
2019-06-26T17:17:38.617Z,6.12
2019-06-26T17:20:07.512Z,5.03
2019-06-26T17:22:36.258Z,5.35
2019-06-26T17:25:09.211Z,5.55
2019-06-26T17:27:38.081Z,6.35
2019-06-26T17:30:07.271Z,6.10
2019-06-26T17:32:35.976Z,4.85
2019-06-26T17:35:06.548Z,5.45
2019-06-26T17:37:35.293Z,8.45
2019-06-26T17:40:05.959Z,5.65
2019-06-26T17:42:34.624Z,5.67
2019-06-26T17:45:04.949Z,5.72
2019-06-26T17:47:33.784Z,5.42
2019-06-26T17:50:03.102Z,6.42
2019-06-26T17:52:35.591Z,6.65
2019-06-26T17:55:02.066Z,5.92
2019-06-26T17:57:30.966Z,7.53
2019-06-26T17:59:59.624Z,6.97
2019-06-26T18:02:28.151Z,6.50
2019-06-26T18:04:56.778Z,7.53
2019-06-26T18:07:27.464Z,7.97
2019-06-26T18:09:56.251Z,7.22
2019-06-26T18:12:24.839Z,7.08
2019-06-26T18:14:54.207Z,7.10
2019-06-26T18:17:22.859Z,7.15
2019-06-26T18:19:55.265Z,7.33
2019-06-26T18:22:27.226Z,6.80
2019-06-26T18:24:56.061Z,6.92
2019-06-26T18:27:24.709Z,7.15
2019-06-26T18:29:53.523Z,7.35
2019-06-26T18:32:22.123Z,6.55
2019-06-26T18:34:51.116Z,7.80
2019-06-26T18:37:19.755Z,7.17
2019-06-26T18:39:48.460Z,6.85
2019-06-26T18:42:17.080Z,7.58
2019-06-26T18:44:46.098Z,6.95
2019-06-26T18:47:15.035Z,7.90
2019-06-26T18:49:43.718Z,6.72
2019-06-26T18:54:46.084Z,6.83
2019-06-26T18:57:14.875Z,7.03
2019-06-26T18:59:43.702Z,6.08
2019-06-26T19:02:36.591Z,8.05
2019-06-26T19:05:09.551Z,6.75
2019-06-26T19:07:38.343Z,6.60
2019-06-26T19:10:10.649Z,13.28
2019-06-26T19:12:39.238Z,13.25
2019-06-26T19:15:08.172Z,5.92
2019-06-26T19:17:36.745Z,5.25
2019-06-26T19:20:07.025Z,4.85
2019-06-26T19:22:35.661Z,5.58
2019-06-26T19:25:06.168Z,5.35
2019-06-26T19:27:34.950Z,5.28
2019-06-26T19:30:05.223Z,5.83
2019-06-26T19:32:37.310Z,5.35
2019-06-26T19:35:18.201Z,5.08
2019-06-26T19:37:35.159Z,4.42
2019-06-26T19:40:08.259Z,4.47
2019-06-26T19:42:35.221Z,4.75
2019-06-26T19:45:05.765Z,5.08
2019-06-26T19:47:34.407Z,4.15
2019-06-26T19:50:04.068Z,4.37
2019-06-26T19:52:32.635Z,4.30
2019-06-26T19:55:01.311Z,4.50
2019-06-26T19:57:29.973Z,4.20
2019-06-26T19:59:58.495Z,3.87
2019-06-26T20:02:27.220Z,3.98
2019-06-26T20:04:55.940Z,3.83
2019-06-26T20:07:24.619Z,3.37
2019-06-26T20:09:53.241Z,3.80
2019-06-26T20:12:21.949Z,3.45
2019-06-26T20:14:50.425Z,3.65
2019-06-26T20:17:19.049Z,3.60
2019-06-26T20:19:47.754Z,3.63
2019-06-26T20:22:16.407Z,4.22
2019-06-26T20:24:45.122Z,3.80
2019-06-26T20:27:13.678Z,4.33
2019-06-26T20:29:42.173Z,4.35
2019-06-26T20:32:10.815Z,4.00
2019-06-26T20:34:39.355Z,4.00
2019-06-26T20:37:07.957Z,4.62
2019-06-26T20:39:36.511Z,4.27
2019-06-26T20:42:05.218Z,3.83
2019-06-26T20:44:33.841Z,4.45
2019-06-26T20:47:02.427Z,4.33
2019-06-26T20:49:30.989Z,4.53
2019-06-26T20:51:59.565Z,5.20
2019-06-26T20:54:28.293Z,3.80
2019-06-26T20:56:56.911Z,3.97
2019-06-26T20:59:25.578Z,4.27
2019-06-26T21:01:54.282Z,4.53
2019-06-26T21:04:22.967Z,4.75
2019-06-26T21:06:51.626Z,4.80
2019-06-26T21:09:20.212Z,4.97
2019-06-26T21:11:48.773Z,4.05
2019-06-26T21:14:17.355Z,5.10
2019-06-26T21:16:46.056Z,4.87
2019-06-26T21:19:14.647Z,5.20
2019-06-26T21:24:17.677Z,5.20
2019-06-26T21:26:46.161Z,5.60
2019-06-26T21:29:16.326Z,5.17
2019-06-26T21:31:44.875Z,5.43
2019-06-26T21:34:14.746Z,5.07
2019-06-26T21:36:43.433Z,5.40
2019-06-26T21:39:12.090Z,6.83
2019-06-26T21:41:40.637Z,5.80
2019-06-26T21:44:09.276Z,5.70
2019-06-26T21:46:37.790Z,5.83
2019-06-26T21:49:06.355Z,5.67
2019-06-26T21:51:34.950Z,6.07
2019-06-26T21:54:03.600Z,6.67
2019-06-26T21:56:32.165Z,6.07
2019-06-26T21:59:00.825Z,7.63
2019-06-26T22:01:29.731Z,6.87
2019-06-26T22:03:58.312Z,7.20
2019-06-26T22:06:27.124Z,7.13
2019-06-26T22:08:55.677Z,6.87
2019-06-26T22:11:24.385Z,7.20
2019-06-26T22:13:52.948Z,7.87
2019-06-26T22:16:21.551Z,9.00
2019-06-26T22:18:50.121Z,8.10
2019-06-26T22:21:18.702Z,8.18
2019-06-26T22:23:47.376Z,8.58
2019-06-26T22:26:15.954Z,8.13
2019-06-26T22:28:47.044Z,8.63
2019-06-26T22:31:15.690Z,8.73
2019-06-26T22:33:44.168Z,8.73
2019-06-26T22:36:12.875Z,8.57
2019-06-26T22:38:53.890Z,8.97
2019-06-26T22:41:22.698Z,8.37
2019-06-26T22:43:51.450Z,9.10
2019-06-26T22:46:20.135Z,8.67
2019-06-26T22:48:48.847Z,8.90
2019-06-26T22:51:17.427Z,9.00
2019-06-26T22:53:46.605Z,7.70
2019-06-26T22:56:15.177Z,7.85
2019-06-26T22:58:48.197Z,8.33
2019-06-26T23:01:16.782Z,8.40
2019-06-26T23:04:03.583Z,8.73
2019-06-26T23:06:38.794Z,8.90
2019-06-26T23:09:08.430Z,8.63
2019-06-26T23:11:41.044Z,8.67
2019-06-26T23:14:17.068Z,8.23
2019-06-26T23:16:45.674Z,7.97
2019-06-26T23:19:15.107Z,9.23
2019-06-26T23:21:43.964Z,8.43
2019-06-26T23:24:12.567Z,9.47
2019-06-26T23:26:41.046Z,9.65
2019-06-26T23:29:09.572Z,9.63
2019-06-26T23:31:38.210Z,9.27
2019-06-26T23:34:06.794Z,9.63
2019-06-26T23:36:35.342Z,10.00
2019-06-26T23:39:05.364Z,9.60
2019-06-26T23:41:33.920Z,10.50
2019-06-26T23:44:02.599Z,10.23
2019-06-26T23:46:31.141Z,11.30
2019-06-26T23:48:59.686Z,10.50
2019-06-26T23:51:28.161Z,9.77
2019-06-26T23:53:56.648Z,9.97
2019-06-26T23:56:39.523Z,10.53
2019-06-26T23:58:55.548Z,10.60
